Time;durP1;ratioP1;P1;durP2;ratioP2;P2;SDS_P1;SDS_P2;PMS_P1;PMS_P2;Temp;Humidity;BMP_temperature;BMP_pressure;BME280_temperature;BME280_humidity;BME280_pressure;Samples;Min_cycle;Max_cycle;Signal;HPM_P1;HPM_P2
2022/05/27 00:00:11;;;;;;;1.15;0.98;;;;;;;20.57;45.15;93845.63;4984659;28;20049;-91
2022/05/27 00:02:36;;;;;;;1.05;0.80;;;;;;;20.52;45.12;93839.69;4979452;28;20038;-89
2022/05/27 00:05:02;;;;;;;0.95;0.60;;;;;;;20.51;45.33;93838.19;4974706;28;20038;-91
2022/05/27 00:07:27;;;;;;;1.45;0.90;;;;;;;20.51;45.54;93835.44;4973321;28;20286;-94
2022/05/27 00:09:53;;;;;;;0.98;0.90;;;;;;;20.52;45.42;93833.44;4983652;28;20503;-90
2022/05/27 00:12:20;;;;;;;1.27;1.08;;;;;;;20.50;45.37;93839.44;4953215;28;20038;-89
2022/05/27 00:14:46;;;;;;;0.60;0.60;;;;;;;20.51;45.18;93831.97;4957994;28;20341;-90
2022/05/27 00:17:11;;;;;;;0.77;0.77;;;;;;;20.53;45.32;93829.44;4985296;28;20034;-90
2022/05/27 00:19:37;;;;;;;1.20;1.00;;;;;;;20.51;45.37;93829.94;4967131;28;20045;-91
2022/05/27 00:22:02;;;;;;;1.02;0.60;;;;;;;20.52;45.13;93825.19;4968715;28;20030;-90
2022/05/27 00:24:28;;;;;;;0.75;0.70;;;;;;;20.51;45.38;93824.47;4971290;28;20042;-90
2022/05/27 00:26:53;;;;;;;0.73;0.60;;;;;;;20.51;45.48;93824.47;4973720;28;20385;-89
2022/05/27 00:29:19;;;;;;;1.10;0.82;;;;;;;20.52;45.10;93816.97;4969247;28;20034;-93
2022/05/27 00:31:44;;;;;;;0.70;0.70;;;;;;;20.52;45.41;93825.19;4972450;28;20503;-92
2022/05/27 00:34:10;;;;;;;0.82;0.60;;;;;;;20.52;45.29;93820.47;4955579;28;20043;-88
2022/05/27 00:36:36;;;;;;;1.85;0.98;;;;;;;20.52;45.39;93819.72;4966521;28;20031;-91
2022/05/27 00:39:03;;;;;;;0.90;0.70;;;;;;;20.51;45.10;93815.47;4973294;28;20080;-92
2022/05/27 00:41:29;;;;;;;1.15;0.70;;;;;;;20.50;45.23;93817.47;4967860;28;20061;-90
2022/05/27 00:43:54;;;;;;;0.80;0.80;;;;;;;20.50;45.31;93809.25;4965346;28;20587;-90
2022/05/27 00:46:25;;;;;;;0.80;0.70;;;;;;;20.50;45.27;93811.97;4982729;28;20034;-90
2022/05/27 00:48:52;;;;;;;0.77;0.77;;;;;;;20.49;45.51;93804.25;4972963;28;20057;-90
2022/05/27 00:51:24;;;;;;;0.80;0.60;;;;;;;20.48;45.32;93808.25;4969714;28;20575;-92
2022/05/27 00:54:09;;;;;;;0.98;0.50;;;;;;;20.49;45.41;93804.25;4970773;28;20448;-93
2022/05/27 00:56:36;;;;;;;1.38;0.73;;;;;;;20.49;45.36;93802.25;4998824;28;20150;-90
2022/05/27 00:59:04;;;;;;;0.73;0.60;;;;;;;20.46;45.41;93802.53;4960239;28;20044;-92
2022/05/27 01:01:30;;;;;;;0.65;0.63;;;;;;;20.47;45.31;93798.53;4972771;28;20061;-90
2022/05/27 01:03:56;;;;;;;0.60;0.52;;;;;;;20.49;45.30;93798.75;4989273;28;20485;-93
2022/05/27 01:06:21;;;;;;;0.75;0.73;;;;;;;20.47;45.35;93801.28;4987904;28;20045;-93
2022/05/27 01:08:47;;;;;;;0.95;0.70;;;;;;;20.48;45.35;93802.78;4962308;28;20038;-88
2022/05/27 01:11:34;;;;;;;1.13;0.55;;;;;;;20.47;45.34;93790.28;4972884;28;20034;-88
2022/05/27 01:14:17;;;;;;;0.60;0.60;;;;;;;20.47;45.52;93787.56;5003702;28;20068;-92
2022/05/27 01:16:56;;;;;;;0.68;0.55;;;;;;;20.45;45.30;93785.31;4972924;28;20073;-89
2022/05/27 01:22:38;;;;;;;0.43;0.43;;;;;;;20.44;45.25;93794.81;5001356;28;20115;-90
2022/05/27 01:25:41;;;;;;;0.55;0.55;;;;;;;20.45;45.36;93784.56;4983540;28;20030;-90
2022/05/27 01:28:33;;;;;;;1.48;0.90;;;;;;;20.45;45.47;93787.31;5005170;28;20132;-91
2022/05/27 01:31:26;;;;;;;0.68;0.68;;;;;;;20.45;45.48;93784.56;4953463;28;20117;-89
2022/05/27 01:34:07;;;;;;;0.50;0.50;;;;;;;20.45;45.64;93787.31;4982355;28;20038;-90
2022/05/27 01:36:46;;;;;;;0.47;0.40;;;;;;;20.43;45.40;93787.09;4963916;28;20045;-89
2022/05/27 01:39:15;;;;;;;0.70;0.70;;;;;;;20.43;45.57;93773.34;4965560;28;20060;-91
2022/05/27 01:41:46;;;;;;;0.80;0.70;;;;;;;20.44;45.61;93777.59;4989795;28;20088;-89
2022/05/27 01:44:19;;;;;;;0.70;0.50;;;;;;;20.43;45.51;93776.09;4998885;28;20106;-89
2022/05/27 01:46:45;;;;;;;0.60;0.60;;;;;;;20.44;45.54;93780.34;4973440;28;20034;-90
2022/05/27 01:49:20;;;;;;;0.45;0.45;;;;;;;20.43;45.35;93785.09;4971558;28;20034;-90
2022/05/27 01:51:51;;;;;;;0.65;0.52;;;;;;;20.44;45.60;93783.81;4989153;28;20037;-94
2022/05/27 01:54:18;;;;;;;;;;;;;;;20.46;45.53;93778.56;4967292;28;20042;-94
2022/05/27 01:56:48;;;;;;;1.08;0.70;;;;;;;20.43;45.62;93779.59;4974402;28;20372;-89
2022/05/27 01:59:16;;;;;;;0.90;0.70;;;;;;;20.42;45.79;93782.84;4978513;28;20041;-93
2022/05/27 02:01:45;;;;;;;1.00;0.57;;;;;;;20.42;45.31;93778.09;4989331;28;20029;-93
2022/05/27 02:04:18;;;;;;;0.45;0.45;;;;;;;20.42;45.47;93775.34;4972169;28;20034;-90
2022/05/27 02:06:46;;;;;;;0.60;0.55;;;;;;;20.42;45.48;93775.34;5007957;28;20037;-91
2022/05/27 02:09:22;;;;;;;0.60;0.55;;;;;;;20.43;45.64;93776.09;4990628;28;20030;-90
2022/05/27 02:11:48;;;;;;;0.50;0.50;;;;;;;20.42;45.19;93772.63;4976835;28;20043;-92
2022/05/27 02:14:24;;;;;;;0.70;0.60;;;;;;;20.41;45.55;93765.63;5003234;28;20091;-92
2022/05/27 02:16:59;;;;;;;0.77;0.70;;;;;;;20.41;45.74;93773.13;4961888;28;20088;-94
2022/05/27 02:19:37;;;;;;;0.52;0.50;;;;;;;20.41;45.60;93773.88;4993915;28;20037;-93
2022/05/27 02:22:08;;;;;;;0.60;0.60;;;;;;;20.42;45.54;93774.63;4981508;28;20052;-90
2022/05/27 02:24:37;;;;;;;;;;;;;;;20.43;45.60;93765.88;5008974;28;20557;-92
2022/05/27 02:27:13;;;;;;;0.55;0.55;;;;;;;20.40;45.68;93775.13;5014295;28;19921;-89
2022/05/27 02:29:38;;;;;;;0.50;0.50;;;;;;;20.40;45.55;93766.88;4982030;28;20058;-90
2022/05/27 02:32:12;;;;;;;0.90;0.60;;;;;;;20.40;45.67;93766.88;4981305;28;20170;-89
2022/05/27 02:37:31;;;;;;;0.70;0.63;;;;;;;20.39;45.71;93768.16;4986456;28;20045;-91
2022/05/27 02:39:57;;;;;;;0.45;0.40;;;;;;;20.42;45.44;93763.63;5001500;28;20041;-90
2022/05/27 02:42:47;;;;;;;0.50;0.40;;;;;;;20.40;45.56;93763.41;4963098;28;20042;-91
2022/05/27 02:45:22;;;;;;;0.60;0.60;;;;;;;20.40;45.45;93763.41;4970366;28;20034;-93
2022/05/27 02:48:16;;;;;;;0.82;0.70;;;;;;;20.38;45.62;93760.41;4981089;28;20356;-90
2022/05/27 02:50:47;;;;;;;1.15;0.70;;;;;;;20.41;45.68;93764.88;5004457;28;20034;-91
2022/05/27 02:53:23;;;;;;;0.57;0.57;;;;;;;20.37;45.66;93765.16;5011823;28;20484;-89
2022/05/27 02:56:07;;;;;;;0.50;0.50;;;;;;;20.39;45.76;93770.88;4996647;28;20122;-91
2022/05/27 02:58:33;;;;;;;0.80;0.55;;;;;;;20.38;45.62;93766.66;5020809;28;20041;-90
2022/05/27 03:00:58;;;;;;;0.82;0.57;;;;;;;20.38;45.77;93771.41;4977109;28;20060;-93
2022/05/27 03:03:24;;;;;;;0.50;0.43;;;;;;;20.37;45.70;93773.41;4969242;28;20052;-91
2022/05/27 03:06:01;;;;;;;0.88;0.50;;;;;;;20.39;45.62;93770.16;4976852;28;20065;-92
2022/05/27 03:08:33;;;;;;;0.35;0.35;;;;;;;20.40;45.69;93768.88;5023787;28;20033;-90
2022/05/27 03:11:04;;;;;;;0.60;0.60;;;;;;;20.38;45.63;93766.66;4987433;28;20071;-94
2022/05/27 03:13:51;;;;;;;1.10;0.47;;;;;;;20.37;45.71;93767.91;4975149;28;20429;-90
2022/05/27 03:16:29;;;;;;;0.40;0.40;;;;;;;20.38;45.79;93772.16;5020514;28;20067;-89
2022/05/27 03:19:12;;;;;;;0.40;0.40;;;;;;;20.37;45.77;93762.44;4980875;28;20042;-88
2022/05/27 03:21:54;;;;;;;0.50;0.40;;;;;;;20.38;45.87;93763.91;5012641;28;20033;-92
2022/05/27 03:24:28;;;;;;;0.50;0.50;;;;;;;20.38;45.79;93760.41;5009896;28;20041;-90
2022/05/27 03:26:54;;;;;;;0.60;0.50;;;;;;;20.37;45.64;93758.94;4993876;28;20037;-91
2022/05/27 03:29:26;;;;;;;0.60;0.60;;;;;;;20.37;45.63;93764.41;5015782;28;20042;-89
2022/05/27 03:32:08;;;;;;;0.85;0.75;;;;;;;20.37;45.57;93767.16;4978849;28;20056;-93
2022/05/27 03:34:40;;;;;;;1.15;0.50;;;;;;;20.36;45.57;93763.66;5024104;28;20044;-91
2022/05/27 03:37:11;;;;;;;0.57;0.57;;;;;;;20.37;45.69;93762.44;4971674;28;20042;-91
2022/05/27 03:39:51;;;;;;;0.50;0.50;;;;;;;20.38;45.95;93765.91;4996688;28;20038;-92
2022/05/27 03:42:19;;;;;;;0.57;0.57;;;;;;;20.37;45.64;93761.69;4990543;28;20112;-90
2022/05/27 03:45:06;;;;;;;0.50;0.50;;;;;;;20.36;45.67;93762.91;4978898;28;20048;-89
2022/05/27 03:47:32;;;;;;;0.55;0.55;;;;;;;20.36;45.85;93757.41;4960419;28;20046;-92
2022/05/27 03:49:57;;;;;;;1.08;0.60;;;;;;;20.37;45.62;93769.91;5004664;28;20033;-90
2022/05/27 03:52:24;;;;;;;0.70;0.60;;;;;;;20.36;45.75;93763.66;4977231;28;20579;-93
2022/05/27 03:54:49;;;;;;;1.85;0.30;;;;;;;20.37;45.58;93772.66;4987566;28;20120;-90
2022/05/27 03:57:15;;;;;;;0.55;0.40;;;;;;;20.35;45.83;93769.69;4976107;28;20509;-93
2022/05/27 03:59:40;;;;;;;0.40;0.40;;;;;;;20.36;45.85;93769.16;4961805;28;20560;-95
2022/05/27 04:02:06;;;;;;;0.50;0.50;;;;;;;20.35;45.61;93766.94;4967714;28;20039;-90
2022/05/27 04:04:31;;;;;;;0.80;0.70;;;;;;;20.37;45.75;93775.41;4958114;28;20038;-87
2022/05/27 04:06:57;;;;;;;0.30;0.30;;;;;;;20.36;45.82;93779.38;4989708;28;20046;-89
2022/05/27 04:09:23;;;;;;;0.32;0.32;;;;;;;20.35;45.84;93769.69;4978758;28;20062;-91
2022/05/27 04:11:48;;;;;;;2.28;0.50;;;;;;;20.36;45.83;93771.16;4951097;28;20042;-90
2022/05/27 04:14:14;;;;;;;0.50;0.50;;;;;;;20.36;45.63;93768.41;4985810;28;20034;-89
2022/05/27 04:16:39;;;;;;;0.50;0.40;;;;;;;20.33;45.73;93770.19;4968295;28;20042;-91
2022/05/27 04:19:05;;;;;;;0.45;0.45;;;;;;;20.34;45.88;93765.44;4955030;28;20756;-89
2022/05/27 04:21:30;;;;;;;0.60;0.45;;;;;;;20.36;45.47;93777.38;4977074;28;20042;-91
2022/05/27 04:23:56;;;;;;;0.55;0.45;;;;;;;20.35;45.68;93777.91;4968704;28;20058;-90
2022/05/27 04:26:21;;;;;;;0.75;0.50;;;;;;;20.33;45.99;93778.44;4972691;28;20047;-93
2022/05/27 04:28:47;;;;;;;1.30;0.50;;;;;;;20.35;45.65;93775.88;4961546;28;20030;-91
2022/05/27 04:31:12;;;;;;;0.35;0.35;;;;;;;20.36;45.67;93774.63;4966653;28;20473;-92
2022/05/27 04:33:37;;;;;;;0.52;0.52;;;;;;;20.35;45.98;93766.94;4968252;28;20034;-89
2022/05/27 04:36:04;;;;;;;0.65;0.40;;;;;;;20.35;45.86;93769.69;4960412;28;20031;-89
2022/05/27 04:38:29;;;;;;;0.43;0.40;;;;;;;20.36;45.78;93774.63;4984787;28;20393;-91
2022/05/27 04:40:55;;;;;;;0.47;0.40;;;;;;;20.37;45.81;93770.66;4975258;28;20038;-88
2022/05/27 04:43:21;;;;;;;1.10;0.40;;;;;;;20.38;45.69;93766.66;4979185;28;20034;-91
2022/05/27 04:45:47;;;;;;;0.50;0.40;;;;;;;20.38;45.52;93769.41;4954092;28;20034;-92
2022/05/27 04:48:13;;;;;;;0.60;0.43;;;;;;;20.38;45.62;93772.16;4953660;28;20053;-88
2022/05/27 04:50:39;;;;;;;0.50;0.50;;;;;;;20.38;45.52;93780.38;4970314;28;20637;-91
2022/05/27 04:53:04;;;;;;;0.50;0.50;;;;;;;20.41;45.76;93760.13;4959509;28;20046;-90
2022/05/27 04:55:31;;;;;;;1.63;0.55;;;;;;;20.44;45.43;93769.34;4955369;28;20599;-88
2022/05/27 04:57:56;;;;;;;0.60;0.60;;;;;;;20.42;45.77;93758.13;4968557;28;20093;-88
2022/05/27 05:00:23;;;;;;;0.65;0.50;;;;;;;20.39;45.10;93765.41;4951216;28;20046;-90
2022/05/27 05:02:48;;;;;;;0.40;0.40;;;;;;;20.41;45.61;93751.91;4987488;28;20034;-90
2022/05/27 05:05:16;;;;;;;2.80;0.57;;;;;;;20.44;45.69;93759.13;4981790;28;20037;-90
2022/05/27 05:07:43;;;;;;;0.70;0.60;;;;;;;20.43;45.46;93746.63;4963833;28;20035;-93
2022/05/27 05:10:12;;;;;;;0.50;0.50;;;;;;;20.43;45.67;93754.13;4957376;28;20033;-90
2022/05/27 05:12:38;;;;;;;0.45;0.45;;;;;;;20.43;45.71;93752.13;4987760;28;20059;-92
2022/05/27 05:15:04;;;;;;;0.30;0.30;;;;;;;20.47;45.63;93751.84;4956647;28;20682;-89
2022/05/27 05:17:29;;;;;;;0.30;0.30;;;;;;;20.49;45.62;93758.31;4980479;28;20034;-90
2022/05/27 05:19:55;;;;;;;0.30;0.30;;;;;;;20.50;45.31;93757.06;4989315;28;20026;-94
2022/05/27 05:22:22;;;;;;;0.40;0.40;;;;;;;20.53;45.55;93760.78;4961975;28;20030;-92
2022/05/27 05:24:53;;;;;;;0.50;0.30;;;;;;;20.55;45.66;93763.75;4969253;28;20511;-92
2022/05/27 05:27:19;;;;;;;0.43;0.30;;;;;;;20.56;45.49;93762.50;4956993;28;20035;-91
2022/05/27 05:29:44;;;;;;;1.55;0.32;;;;;;;20.56;45.66;93768.00;4958214;28;20113;-90
2022/05/27 05:32:11;;;;;;;0.22;0.22;;;;;;;20.57;45.49;93760.50;4974174;28;20051;-88
2022/05/27 05:34:36;;;;;;;0.85;0.40;;;;;;;20.63;45.40;93763.91;4956018;28;20049;-91
2022/05/27 05:37:02;;;;;;;2.13;0.38;;;;;;;20.64;45.33;93768.13;4958346;28;20042;-89
2022/05/27 05:39:27;;;;;;;3.05;0.40;;;;;;;20.63;45.39;93761.16;4978794;28;20041;-89
2022/05/27 05:41:58;;;;;;;0.43;0.32;;;;;;;20.61;45.36;93753.44;4948689;28;20042;-90
2022/05/27 05:44:23;;;;;;;0.30;0.30;;;;;;;20.62;45.40;93741.19;4982314;28;20116;-88
2022/05/27 05:46:49;;;;;;;0.50;0.40;;;;;;;20.61;45.37;93747.94;4955319;28;20448;-90
2022/05/27 05:49:16;;;;;;;0.30;0.30;;;;;;;20.67;45.22;93739.63;4965156;28;20044;-91
2022/05/27 05:51:41;;;;;;;1.95;0.60;;;;;;;20.68;45.47;93741.13;4961377;28;20046;-91
2022/05/27 05:54:07;;;;;;;0.55;0.30;;;;;;;20.67;45.20;93737.63;4976219;28;20034;-91
2022/05/27 05:56:33;;;;;;;0.43;0.30;;;;;;;20.69;45.20;93739.88;4989886;28;20030;-85
2022/05/27 05:58:59;;;;;;;1.90;0.45;;;;;;;20.72;45.17;93739.56;4970155;28;20029;-85
2022/05/27 06:01:24;;;;;;;0.40;0.40;;;;;;;20.74;45.08;93725.31;4975542;28;20038;-89
2022/05/27 06:03:50;;;;;;;0.47;0.40;;;;;;;20.75;44.95;93737.78;4975860;28;20061;-88
2022/05/27 06:06:15;;;;;;;0.22;0.22;;;;;;;20.76;45.31;93734.53;4991719;28;20037;-88
2022/05/27 06:08:40;;;;;;;2.28;0.60;;;;;;;20.77;44.96;93744.25;4976094;28;20030;-89
2022/05/27 06:11:07;;;;;;;1.65;0.30;;;;;;;20.77;45.28;93738.78;4987268;28;20496;-88
2022/05/27 06:13:33;;;;;;;12.32;2.28;;;;;;;20.77;45.21;93747.00;4992323;28;20038;-90
2022/05/27 06:15:58;;;;;;;28.15;4.75;;;;;;;20.79;45.16;93736.22;4990019;28;20045;-88
2022/05/27 06:18:23;;;;;;;40.17;7.65;;;;;;;20.81;45.16;93741.19;4996681;28;20042;-94
2022/05/27 06:20:50;;;;;;;18.73;4.15;;;;;;;20.81;45.15;93739.19;4979641;28;20035;-90
2022/05/27 06:23:15;;;;;;;17.58;2.95;;;;;;;20.82;45.04;93748.19;4960067;28;20065;-93
2022/05/27 06:25:41;;;;;;;14.77;3.88;;;;;;;20.81;45.14;93746.69;4960205;28;20049;-86
2022/05/27 06:36:20;;;;;;;33.50;6.10;;;;;;;20.87;44.92;93723.38;5000252;28;20049;-86
2022/05/27 06:38:46;;;;;;;45.25;7.78;;;;;;;20.88;44.85;93737.88;5016889;28;20034;-90
2022/05/27 06:41:13;;;;;;;33.85;6.45;;;;;;;20.88;45.00;93737.88;4973204;28;20132;-90
2022/05/27 06:43:39;;;;;;;35.28;4.97;;;;;;;20.90;45.02;93738.09;5001737;28;20145;-87
2022/05/27 06:46:04;;;;;;;25.83;4.78;;;;;;;20.95;45.60;93728.31;4978164;28;20045;-86
2022/05/27 06:48:30;;;;;;;38.45;5.80;;;;;;;20.94;44.97;93738.56;5011988;28;20030;-87
2022/05/27 06:53:20;;;;;;;26.13;5.97;;;;;;;20.97;45.05;93723.03;5043470;23;20049;-89
2022/05/27 06:55:50;;;;;;;25.27;4.25;;;;;;;20.98;44.97;93728.00;5004498;28;20033;-88
2022/05/27 06:58:17;;;;;;;23.90;7.45;;;;;;;20.97;44.89;93721.03;4994266;28;20060;-89
2022/05/27 07:00:47;;;;;;;25.10;5.82;;;;;;;21.00;44.90;93733.00;5028103;28;20036;-89
2022/05/27 07:03:13;;;;;;;29.02;7.43;;;;;;;21.01;45.28;93735.19;5034377;28;20037;-89
2022/05/27 07:05:39;;;;;;;33.08;8.40;;;;;;;21.00;44.81;93733.00;4998970;28;20030;-89
2022/05/27 07:08:06;;;;;;;25.88;7.25;;;;;;;21.00;44.98;93735.75;4996084;28;20040;-89
2022/05/27 07:10:35;;;;;;;33.97;10.10;;;;;;;21.00;44.93;93730.25;4995779;28;20053;-89
2022/05/27 07:13:03;;;;;;;42.75;14.18;;;;;;;21.07;47.50;93741.38;5033136;28;20445;-90
2022/05/27 07:15:32;;;;;;;30.33;14.27;;;;;;;21.05;45.09;93727.41;5020792;22;20060;-91
2022/05/27 07:17:57;;;;;;;28.83;13.48;;;;;;;21.08;44.99;93740.09;5043811;28;20467;-91
2022/05/27 07:20:24;;;;;;;31.90;12.30;;;;;;;21.07;44.78;93737.88;4993109;28;20077;-90
2022/05/27 07:22:49;;;;;;;27.23;12.15;;;;;;;21.06;44.83;93733.63;4999465;23;20133;-89
2022/05/27 07:25:15;;;;;;;27.13;10.50;;;;;;;21.07;44.95;93727.63;4991283;28;20053;-91
2022/05/27 07:27:41;;;;;;;23.98;11.45;;;;;;;21.07;44.88;93730.38;4996951;28;20145;-89
2022/05/27 07:30:10;;;;;;;25.60;12.07;;;;;;;21.07;45.31;93722.13;5001416;28;20046;-88
2022/05/27 07:32:35;;;;;;;31.70;15.32;;;;;;;21.02;45.03;93730.44;4972386;28;20045;-89
2022/05/27 07:35:03;;;;;;;29.48;15.13;;;;;;;21.06;44.89;93728.88;5010967;28;20125;-91
2022/05/27 07:37:28;;;;;;;25.75;14.57;;;;;;;21.07;44.83;93724.13;4980389;28;20059;-89
2022/05/27 07:39:54;;;;;;;28.33;13.35;;;;;;;21.06;44.76;93736.38;4998157;28;20496;-89
2022/05/27 07:42:19;;;;;;;30.15;15.15;;;;;;;21.07;44.99;93724.88;5013510;28;20518;-90
2022/05/27 07:44:45;;;;;;;32.28;15.60;;;;;;;21.08;44.71;93726.34;4992392;28;20445;-88
2022/05/27 07:47:10;;;;;;;36.17;16.05;;;;;;;21.10;44.83;93737.59;4949338;28;20120;-91
2022/05/27 07:49:36;;;;;;;52.17;17.67;;;;;;;21.11;44.82;93730.06;4991873;28;20095;-88
2022/05/27 07:52:02;;;;;;;44.20;18.25;;;;;;;21.12;45.12;93726.06;4997192;28;20041;-91
2022/05/27 07:54:28;;;;;;;41.70;21.30;;;;;;;21.14;44.90;93716.03;5021028;28;20116;-90
2022/05/27 07:56:53;;;;;;;51.70;22.20;;;;;;;21.11;44.78;93725.31;4980015;28;20044;-89
2022/05/27 07:59:19;;;;;;;72.32;24.58;;;;;;;21.10;44.95;93720.34;4998794;28;20042;-91
2022/05/27 08:01:44;;;;;;;68.05;27.77;;;;;;;21.10;45.20;93723.84;4987380;28;20030;-91
2022/05/27 08:04:09;;;;;;;85.13;28.83;;;;;;;21.15;45.01;93722.28;4998210;28;20104;-91
2022/05/27 08:06:35;;;;;;;65.47;26.73;;;;;;;21.14;45.28;93718.03;4993361;28;20124;-90
2022/05/27 08:09:01;;;;;;;79.95;29.33;;;;;;;21.16;44.96;93710.03;4995709;28;20040;-91
2022/05/27 08:11:26;;;;;;;67.88;29.20;;;;;;;21.16;45.01;93721.00;5002373;28;20045;-91
2022/05/27 08:13:54;;;;;;;51.95;27.30;;;;;;;21.15;44.86;93714.78;5007182;28;20037;-89
2022/05/27 08:16:21;;;;;;;60.80;28.45;;;;;;;21.13;45.11;93716.56;5012258;28;20152;-90
2022/05/27 08:18:47;;;;;;;51.75;28.17;;;;;;;21.15;44.88;93714.03;5014074;28;20064;-91
2022/05/27 08:21:12;;;;;;;44.55;23.63;;;;;;;21.15;44.98;93692.03;4960632;28;20121;-92
2022/05/27 08:23:37;;;;;;;42.10;25.73;;;;;;;21.15;45.00;93703.78;4972223;28;20033;-89
2022/05/27 08:26:03;;;;;;;48.40;24.38;;;;;;;21.14;45.23;93707.03;4959838;28;20034;-89
2022/05/27 08:28:29;;;;;;;34.05;21.35;;;;;;;21.16;45.15;93707.28;4974828;28;20224;-90
2022/05/27 08:30:55;;;;;;;35.90;22.30;;;;;;;21.15;45.09;93705.78;4996137;28;20322;-90
2022/05/27 08:33:24;;;;;;;41.38;23.13;;;;;;;21.16;45.17;93710.03;5010162;28;20550;-89
2022/05/27 08:38:35;;;;;;;34.67;20.63;;;;;;;21.17;44.93;93708.75;5007672;28;20092;-90
2022/05/27 08:41:17;;;;;;;29.35;19.40;;;;;;;21.15;45.16;93698.28;4981421;28;20424;-90
2022/05/27 08:44:19;;;;;;;28.63;18.23;;;;;;;21.16;45.00;93699.03;5002216;28;20396;-89
2022/05/27 08:46:54;;;;;;;31.92;18.35;;;;;;;21.15;45.09;93701.03;4979544;28;20069;-90
2022/05/27 08:49:26;;;;;;;43.38;28.33;;;;;;;21.17;44.99;93701.25;4988018;28;20038;-90
2022/05/27 08:52:13;;;;;;;73.05;39.45;;;;;;;21.15;44.95;93695.53;4994083;28;20026;-90
2022/05/27 08:54:44;;;;;;;204.18;106.85;;;;;;;21.17;44.84;93700.50;5000725;28;20646;-91
2022/05/27 09:00:20;;;;;;;126.38;95.90;;;;;;;21.22;45.52;93705.19;4949287;28;20044;-90
2022/05/27 09:03:01;;;;;;;220.38;190.48;;;;;;;21.19;45.31;93714.47;4922586;28;20054;-90
2022/05/27 09:05:29;;;;;;;46.28;31.25;;;;;;;21.22;45.35;93704.47;4939649;28;20071;-88
2022/05/27 09:08:04;;;;;;;47.10;32.15;;;;;;;21.20;45.59;93702.25;4954531;28;20058;-90
2022/05/27 09:10:35;;;;;;;96.18;74.65;;;;;;;21.23;45.33;93692.19;4950840;28;20051;-89
2022/05/27 09:13:07;;;;;;;317.60;261.75;;;;;;;21.24;45.24;93697.16;4948157;28;20053;-91
2022/05/27 09:15:46;;;;;;;48.30;32.90;;;;;;;21.24;45.24;93699.16;4943704;28;20047;-91
2022/05/27 09:18:39;;;;;;;56.67;34.20;;;;;;;21.20;45.15;93703.00;4964909;28;20038;-90
2022/05/27 09:21:07;;;;;;;45.08;29.25;;;;;;;21.24;45.06;93704.66;4949047;28;20047;-91
2022/05/27 09:23:32;;;;;;;41.38;29.20;;;;;;;21.23;45.26;93692.94;4936295;28;20046;-91
2022/05/27 09:26:03;;;;;;;71.32;46.05;;;;;;;21.20;45.12;93683.75;4962012;28;20035;-91
2022/05/27 09:28:43;;;;;;;131.48;76.32;;;;;;;21.19;45.21;93670.50;4936382;28;20031;-90
2022/05/27 09:31:09;;;;;;;;;;;;;;;21.19;45.11;93673.25;4983540;28;20038;-91
2022/05/27 09:33:34;;;;;;;140.80;73.65;;;;;;;21.19;45.12;93676.00;4996726;28;19927;-90
2022/05/27 09:36:10;;;;;;;95.00;47.25;;;;;;;21.18;45.46;93675.25;5002847;28;20030;-86
2022/05/27 09:38:38;;;;;;;76.72;40.42;;;;;;;21.18;45.21;93669.00;5025893;28;20042;-89
2022/05/27 09:41:23;;;;;;;56.78;37.13;;;;;;;21.17;45.08;93671.00;5009586;28;20269;-90
2022/05/27 09:43:51;;;;;;;57.75;35.47;;;;;;;21.17;45.24;93671.00;4992854;28;20034;-88
2022/05/27 09:46:24;;;;;;;45.38;30.75;;;;;;;21.18;45.29;93669.75;5008158;28;20033;-90
2022/05/27 09:48:50;;;;;;;63.83;37.83;;;;;;;21.18;45.26;93671.75;4976354;28;20052;-89
2022/05/27 09:51:15;;;;;;;97.38;40.33;;;;;;;21.17;45.15;93684.00;4991178;28;20037;-88
2022/05/27 09:53:45;;;;;;;56.65;33.13;;;;;;;21.16;45.47;93675.03;5008176;28;20500;-88
2022/05/27 09:56:12;;;;;;;61.03;34.45;;;;;;;21.17;45.58;93673.75;4989943;28;20045;-88
2022/05/27 09:58:40;;;;;;;53.80;31.13;;;;;;;21.17;45.39;93664.75;5002643;28;20415;-88
2022/05/27 10:01:24;;;;;;;256.27;52.75;;;;;;;21.16;45.32;93669.53;4983031;28;20031;-87
2022/05/27 10:04:05;;;;;;;198.27;48.80;;;;;;;21.14;45.53;93671.31;5027796;28;20049;-89
2022/05/27 10:06:32;;;;;;;141.77;37.60;;;;;;;21.14;45.48;93674.78;5010314;28;20049;-90
2022/05/27 10:09:07;;;;;;;77.43;32.17;;;;;;;21.12;45.49;93660.09;4994468;28;20378;-89
2022/05/27 10:11:33;;;;;;;82.18;31.27;;;;;;;21.16;45.36;93664.03;5006679;28;20037;-88
2022/05/27 10:14:22;;;;;;;98.28;30.40;;;;;;;21.14;45.52;93666.56;4986921;28;20037;-87
2022/05/27 10:17:08;;;;;;;108.97;32.55;;;;;;;21.14;45.55;93663.06;4978196;28;20132;-89
2022/05/27 10:19:33;;;;;;;71.47;28.45;;;;;;;21.16;45.54;93660.53;5014392;28;20042;-87
2022/05/27 10:22:06;;;;;;;55.78;27.45;;;;;;;21.15;45.39;93654.28;4985464;28;20897;-88
2022/05/27 10:24:36;;;;;;;132.85;43.78;;;;;;;21.14;45.48;93657.56;5000701;28;20042;-88
2022/05/27 10:27:09;;;;;;;59.83;30.10;;;;;;;21.14;45.54;93655.56;5008485;28;20033;-88
2022/05/27 10:29:48;;;;;;;45.70;28.38;;;;;;;21.13;45.55;93648.56;5025884;28;20030;-90
2022/05/27 10:32:31;;;;;;;48.65;27.25;;;;;;;21.14;45.45;93641.81;4977508;28;20042;-89
2022/05/27 10:34:58;;;;;;;48.60;28.20;;;;;;;21.14;45.56;93636.31;4982055;28;20516;-89
2022/05/27 10:37:56;;;;;;;80.30;35.45;;;;;;;21.14;45.61;93638.31;4979607;28;20044;-88
2022/05/27 10:40:41;;;;;;;59.55;31.67;;;;;;;21.15;45.66;93629.56;5025424;28;20068;-89
2022/05/27 10:43:29;;;;;;;57.60;34.35;;;;;;;21.13;45.48;93629.31;5010023;28;20049;-89
2022/05/27 10:45:55;;;;;;;76.35;42.92;;;;;;;21.15;45.42;93626.06;5017697;28;20037;-89
2022/05/27 10:48:57;;;;;;;74.78;44.22;;;;;;;21.14;45.53;93625.31;4989640;28;20034;-89
2022/05/27 10:51:52;;;;;;;96.55;50.35;;;;;;;21.15;45.43;93620.56;4992923;28;20524;-90
2022/05/27 10:54:32;;;;;;;79.93;41.33;;;;;;;21.16;45.42;93620.03;5010813;28;20045;-90
2022/05/27 11:03:08;;;;;;;78.85;41.53;;;;;;;21.15;45.60;93612.31;4986418;28;20032;-87
2022/05/27 11:05:39;;;;;;;60.97;38.63;;;;;;;21.16;45.61;93617.28;5012930;28;20041;-88
2022/05/27 11:08:30;;;;;;;217.43;68.03;;;;;;;21.19;45.54;93604.50;5028934;28;20033;-90
2022/05/27 11:11:01;;;;;;;100.75;47.03;;;;;;;21.18;45.71;93611.28;4985239;28;20072;-88
2022/05/27 11:17:14;;;;;;;65.47;39.35;;;;;;;21.18;45.71;93600.28;5028015;28;20048;-90
2022/05/27 11:19:50;;;;;;;70.95;38.22;;;;;;;21.16;45.71;93595.28;5017381;28;20076;-91
2022/05/27 11:22:28;;;;;;;77.68;41.53;;;;;;;21.18;45.78;93598.25;5009596;28;20500;-90
2022/05/27 11:25:02;;;;;;;82.90;45.35;;;;;;;21.17;45.54;93596.78;5008825;28;20052;-91
2022/05/27 11:27:51;;;;;;;68.70;43.17;;;;;;;21.18;45.39;93595.50;5005841;28;20026;-91
2022/05/27 11:30:27;;;;;;;80.57;42.72;;;;;;;21.20;45.69;93590.25;4995662;28;20092;-89
2022/05/27 11:33:30;;;;;;;83.32;41.08;;;;;;;21.18;45.85;93592.03;4986591;28;20045;-89
2022/05/27 11:36:21;;;;;;;359.05;66.70;;;;;;;21.18;45.66;93573.53;5010076;28;20022;-90
2022/05/27 11:39:12;;;;;;;221.93;52.45;;;;;;;21.16;45.80;93575.31;4995708;28;20045;-89
2022/05/27 11:41:56;;;;;;;113.93;43.47;;;;;;;21.17;45.58;93557.56;4995187;28;20121;-91
2022/05/27 11:44:44;;;;;;;113.50;41.88;;;;;;;21.18;45.71;93562.53;5000328;28;20086;-91
2022/05/27 11:47:31;;;;;;;71.43;38.20;;;;;;;21.17;45.80;93552.06;5009997;28;20527;-90
2022/05/27 11:50:09;;;;;;;57.92;35.85;;;;;;;21.17;45.64;93550.03;4976096;28;20038;-90
2022/05/27 11:53:08;;;;;;;65.97;35.67;;;;;;;21.16;45.53;93551.31;5008717;28;20064;-90
2022/05/27 11:55:40;;;;;;;66.70;36.88;;;;;;;21.19;45.81;93546.78;4992419;28;20061;-89
2022/05/27 11:58:31;;;;;;;62.75;35.60;;;;;;;21.17;45.72;93544.53;5020291;28;20046;-90
2022/05/27 12:01:05;;;;;;;57.88;34.22;;;;;;;21.17;45.65;93538.31;4968203;28;20045;-90
2022/05/27 12:03:54;;;;;;;51.95;31.80;;;;;;;21.17;45.98;93535.56;4997404;28;20429;-90
2022/05/27 12:06:23;;;;;;;55.05;32.72;;;;;;;21.19;45.68;93528.28;5010010;28;20129;-90
2022/05/27 12:09:01;;;;;;;51.60;31.15;;;;;;;21.18;45.62;93526.03;4978681;28;20076;-90
2022/05/27 12:11:38;;;;;;;49.53;31.60;;;;;;;21.18;45.88;93526.78;5001250;28;20523;-91
2022/05/27 12:14:14;;;;;;;50.67;29.85;;;;;;;21.18;45.62;93518.53;4991021;28;20033;-89
2022/05/27 12:16:43;;;;;;;50.63;29.40;;;;;;;21.19;45.76;93522.03;4977047;28;20124;-90